Time;durP1;ratioP1;P1;durP2;ratioP2;P2;SDS_P1;SDS_P2;PMS_P1;PMS_P2;Temp;Humidity;BMP_temperature;BMP_pressure;BME280_temperature;BME280_humidity;BME280_pressure;Samples;Min_cycle;Max_cycle;Signal;HPM_P1;HPM_P2
2021/01/14 00:01:02;;;;;;;1999.90;999.90;;;;;;;2.17;70.91;99791.84;15782567;28;20044;-60
2021/01/14 00:08:34;;;;;;;1999.90;999.90;;;;;;;2.30;71.01;99771.00;15780115;28;20508;-60
2021/01/14 00:16:06;;;;;;;1999.90;999.90;;;;;;;2.23;71.11;99776.06;15760041;28;20129;-62
2021/01/14 00:23:38;;;;;;;1999.90;999.90;;;;;;;2.03;72.05;99769.78;15829627;28;20032;-63
2021/01/14 00:31:10;;;;;;;1999.90;999.90;;;;;;;2.17;74.59;99767.06;15813892;28;20032;-60
2021/01/14 00:38:42;;;;;;;1999.90;999.90;;;;;;;1.92;76.79;99772.97;15765368;28;20127;-63
2021/01/14 00:46:18;;;;;;;1999.90;999.90;;;;;;;1.61;80.11;99781.69;15791941;28;20048;-63
2021/01/14 00:53:49;;;;;;;1999.90;999.90;;;;;;;1.65;80.11;99768.97;15775911;28;20398;-63
2021/01/14 01:01:21;;;;;;;1999.90;999.90;;;;;;;1.81;79.59;99793.50;15742489;28;20131;-63
2021/01/14 01:08:53;;;;;;;1999.90;999.90;;;;;;;1.98;79.86;99805.63;15789947;28;20139;-62
2021/01/14 01:16:26;;;;;;;1999.90;999.90;;;;;;;1.83;79.65;99814.09;15764031;28;20049;-62
2021/01/14 01:23:57;;;;;;;1999.90;999.90;;;;;;;2.20;79.42;99824.28;15804864;22;20044;-57
2021/01/14 01:31:30;;;;;;;1999.90;999.90;;;;;;;2.17;78.91;99840.56;15785825;28;20072;-59
2021/01/14 01:39:02;;;;;;;1999.90;999.90;;;;;;;2.22;79.19;99854.25;15735633;28;20497;-59
2021/01/14 01:46:35;;;;;;;1999.90;999.90;;;;;;;2.21;79.90;99850.69;15716789;28;20382;-60
2021/01/14 01:54:08;;;;;;;1999.90;999.90;;;;;;;2.45;78.96;99869.03;15717356;28;20048;-58
2021/01/14 02:01:40;;;;;;;1999.90;999.90;;;;;;;2.57;79.02;99880.41;15708059;28;20045;-60
2021/01/14 02:09:13;;;;;;;1999.90;999.90;;;;;;;2.59;79.53;99902.94;15721908;28;20045;-58
2021/01/14 02:16:50;;;;;;;1999.90;999.90;;;;;;;2.75;79.33;99950.38;15709975;28;20052;-56
2021/01/14 02:24:28;;;;;;;1999.90;999.90;;;;;;;2.79;78.21;99984.47;15732743;28;20044;-59
2021/01/14 02:32:01;;;;;;;1999.90;999.90;;;;;;;2.78;78.01;100016.69;15725358;28;20040;-60
2021/01/14 02:39:32;;;;;;;1999.90;999.90;;;;;;;2.83;77.39;100046.13;15745067;28;20386;-60
2021/01/14 02:47:08;;;;;;;1999.90;999.90;;;;;;;2.71;77.43;100068.63;15744839;28;20122;-60
2021/01/14 02:54:40;;;;;;;1999.90;999.90;;;;;;;2.48;76.99;100095.06;15727182;28;20029;-60
2021/01/14 03:02:13;;;;;;;1999.90;999.90;;;;;;;2.68;76.60;100121.53;15745945;28;20116;-59
2021/01/14 03:09:46;;;;;;;1999.90;999.90;;;;;;;2.89;75.24;100155.97;15744428;28;20048;-60
2021/01/14 03:17:18;;;;;;;1999.90;999.90;;;;;;;2.92;75.41;100176.63;15743577;28;20055;-60
2021/01/14 03:24:49;;;;;;;1999.90;999.90;;;;;;;2.99;75.02;100198.31;15724714;28;20137;-60
2021/01/14 03:32:22;;;;;;;1999.90;999.90;;;;;;;3.01;74.97;100209.84;15725386;28;20096;-60
2021/01/14 03:39:53;;;;;;;1999.90;999.90;;;;;;;2.92;74.92;100241.94;15741936;28;20142;-59
2021/01/14 03:47:26;;;;;;;1999.90;999.90;;;;;;;3.02;74.64;100267.47;15739801;28;20076;-59
2021/01/14 03:54:57;;;;;;;1999.90;999.90;;;;;;;3.05;74.32;100277.06;15724180;28;20083;-60
2021/01/14 04:02:32;;;;;;;1999.90;999.90;;;;;;;3.16;74.76;100295.13;15745759;28;20386;-60
2021/01/14 04:10:05;;;;;;;1999.90;999.90;;;;;;;3.03;74.90;100321.47;15745708;28;20130;-60
2021/01/14 04:17:38;;;;;;;1999.90;999.90;;;;;;;3.14;74.90;100360.78;15738920;28;20051;-57
2021/01/14 04:25:11;;;;;;;1999.90;999.90;;;;;;;3.08;75.12;100376.53;15739041;28;20509;-57
2021/01/14 04:32:44;;;;;;;1999.90;999.90;;;;;;;3.30;74.62;100392.56;15737983;28;20069;-60
2021/01/14 04:40:16;;;;;;;1999.90;999.90;;;;;;;3.21;75.15;100430.16;15722218;28;20037;-60
2021/01/14 04:47:50;;;;;;;1999.90;999.90;;;;;;;3.17;74.83;100452.00;15739377;28;20144;-60
2021/01/14 04:55:25;;;;;;;1999.90;999.90;;;;;;;3.16;74.64;100461.38;15737342;28;20101;-58
2021/01/14 05:03:05;;;;;;;1999.90;999.90;;;;;;;3.30;74.77;100485.53;15735842;28;20028;-57
2021/01/14 05:10:37;;;;;;;1999.90;999.90;;;;;;;3.47;74.09;100506.03;15736443;28;20052;-58
2021/01/14 05:18:10;;;;;;;1999.90;999.90;;;;;;;3.44;74.60;100525.13;15736153;28;20060;-59
2021/01/14 05:25:51;;;;;;;1999.90;999.90;;;;;;;3.41;74.54;100559.59;15735430;28;20045;-60
2021/01/14 05:33:24;;;;;;;1999.90;999.90;;;;;;;3.30;75.11;100566.31;15737555;28;20055;-59
2021/01/14 05:41:19;;;;;;;1999.90;999.90;;;;;;;3.29;76.00;100583.16;15737565;28;20041;-60
2021/01/14 05:48:54;;;;;;;1999.90;999.90;;;;;;;3.16;75.78;100602.00;15749851;28;20052;-60
2021/01/14 05:56:37;;;;;;;1999.90;999.90;;;;;;;3.46;75.14;100619.44;15749652;28;20258;-60
2021/01/14 06:04:14;;;;;;;1999.90;999.90;;;;;;;3.57;74.48;100643.09;15747425;28;20408;-60
2021/01/14 06:11:47;;;;;;;1999.90;999.90;;;;;;;3.32;75.27;100660.63;15747578;28;20057;-57
2021/01/14 06:19:25;;;;;;;1999.90;999.90;;;;;;;3.47;74.03;100681.78;15746399;28;20080;-59
2021/01/14 06:27:08;;;;;;;1999.90;999.90;;;;;;;3.19;74.65;100702.63;15746160;28;20087;-58
2021/01/14 06:34:42;;;;;;;1999.90;999.90;;;;;;;3.48;73.98;100730.31;15746292;28;20032;-59
2021/01/14 06:42:20;;;;;;;1999.90;999.90;;;;;;;3.46;73.55;100755.44;15745713;28;20063;-59
2021/01/14 06:50:09;;;;;;;1999.90;999.90;;;;;;;3.42;74.48;100786.63;15744639;28;20044;-59
2021/01/14 06:57:48;;;;;;;1999.90;999.90;;;;;;;3.47;74.53;100815.03;15726510;28;20041;-59
2021/01/14 07:05:34;;;;;;;1999.90;999.90;;;;;;;3.63;74.21;100832.31;15744738;28;20041;-56
2021/01/14 07:13:09;;;;;;;1999.90;999.90;;;;;;;3.40;73.54;100847.59;15726553;28;20055;-60
2021/01/14 07:20:41;;;;;;;1999.90;999.90;;;;;;;3.45;73.28;100871.59;15740055;22;20024;-64
2021/01/14 07:28:13;;;;;;;1999.90;999.90;;;;;;;3.16;73.25;100882.44;15811530;28;20060;-63
2021/01/14 07:35:47;;;;;;;1999.90;999.90;;;;;;;3.26;73.16;100892.63;15811678;28;20040;-63
2021/01/14 07:43:31;;;;;;;1999.90;999.90;;;;;;;3.88;71.70;100922.47;15811083;28;20499;-64
2021/01/14 07:51:04;;;;;;;1999.90;999.90;;;;;;;3.91;71.19;100946.75;15810347;28;20072;-65
2021/01/14 07:58:38;;;;;;;1999.90;999.90;;;;;;;4.13;71.42;100965.69;15809369;28;20067;-65
2021/01/14 08:06:26;;;;;;;1999.90;999.90;;;;;;;4.08;72.57;100982.28;15791206;28;20044;-64
2021/01/14 08:14:20;;;;;;;1999.90;999.90;;;;;;;4.18;72.31;100985.00;15809322;28;20187;-65
2021/01/14 08:22:07;;;;;;;1999.90;999.90;;;;;;;4.11;71.76;101011.28;15790251;28;20069;-63
2021/01/14 08:29:44;;;;;;;1999.90;999.90;;;;;;;4.34;71.30;101027.19;15809122;28;20452;-64
2021/01/14 08:37:28;;;;;;;1999.90;999.90;;;;;;;4.63;71.37;101041.13;15807774;28;20056;-65
2021/01/14 08:45:06;;;;;;;1999.90;999.90;;;;;;;4.58;71.74;101043.91;15806918;28;20501;-65
2021/01/14 08:52:44;;;;;;;1999.90;999.90;;;;;;;5.33;69.78;101061.09;15806258;28;20135;-65
2021/01/14 09:00:16;;;;;;;1999.90;999.90;;;;;;;5.32;69.71;101078.81;15787888;28;20082;-64
2021/01/14 09:08:09;;;;;;;1999.90;999.90;;;;;;;5.38;69.43;101098.97;15805381;28;20048;-64
2021/01/14 09:15:41;;;;;;;1999.90;999.90;;;;;;;5.34;69.22;101114.50;15805713;28;20056;-62
2021/01/14 09:23:22;;;;;;;1999.90;999.90;;;;;;;5.25;69.54;101130.06;15804497;28;20048;-62
2021/01/14 09:30:59;;;;;;;1999.90;999.90;;;;;;;5.19;69.38;101132.84;15804838;28;20060;-64
2021/01/14 09:38:37;;;;;;;1999.90;999.90;;;;;;;5.46;68.79;101150.94;15804644;28;20131;-64
2021/01/14 09:46:13;;;;;;;1999.90;999.90;;;;;;;5.07;70.77;101164.75;15786293;28;20048;-63
2021/01/14 09:53:47;;;;;;;1999.90;999.90;;;;;;;5.18;70.20;101172.69;15789509;28;20043;-62
2021/01/14 10:01:22;;;;;;;1999.90;999.90;;;;;;;4.71;72.89;101175.16;15804355;28;20039;-62
2021/01/14 10:08:57;;;;;;;1999.90;999.90;;;;;;;5.17;71.31;101184.88;15803959;28;20071;-63
2021/01/14 10:16:30;;;;;;;1999.90;999.90;;;;;;;4.89;71.46;101196.63;15805265;28;20056;-63
2021/01/14 10:24:03;;;;;;;1999.90;999.90;;;;;;;5.26;70.98;101209.19;15803457;28;20372;-63
2021/01/14 10:31:36;;;;;;;1999.90;999.90;;;;;;;5.20;71.95;101216.69;15791441;28;20129;-63
2021/01/14 10:39:09;;;;;;;1999.90;999.90;;;;;;;5.25;71.51;101224.97;15814142;28;20063;-62
2021/01/14 10:46:44;;;;;;;1999.90;999.90;;;;;;;5.40;70.20;101244.25;15813924;28;20461;-62
2021/01/14 10:54:20;;;;;;;1999.90;999.90;;;;;;;5.07;70.94;101234.72;15795386;28;20160;-63
2021/01/14 11:02:06;;;;;;;1999.90;999.90;;;;;;;5.40;69.45;101237.88;15813306;28;20094;-63
2021/01/14 11:09:50;;;;;;;1999.90;999.90;;;;;;;5.30;69.18;101236.00;15813179;28;20071;-62
2021/01/14 11:17:21;;;;;;;1999.90;999.90;;;;;;;5.06;69.77;101235.03;15812505;28;20044;-64
2021/01/14 11:24:54;;;;;;;1999.90;999.90;;;;;;;5.63;68.58;101228.88;15812381;28;20127;-63
2021/01/14 11:32:26;;;;;;;1999.90;999.90;;;;;;;5.87;67.90;101237.28;15810904;28;20079;-62
2021/01/14 11:39:58;;;;;;;1999.90;999.90;;;;;;;5.49;69.08;101245.28;15792510;28;20036;-63
2021/01/14 11:47:30;;;;;;;1999.90;999.90;;;;;;;6.42;66.50;101249.03;15809747;28;20052;-63
2021/01/14 11:55:03;;;;;;;1999.90;999.90;;;;;;;6.23;65.66;101253.63;15809287;28;20039;-62
2021/01/14 12:02:35;;;;;;;1999.90;999.90;;;;;;;6.09;65.93;101261.78;15808769;28;20040;-63
2021/01/14 12:10:08;;;;;;;1999.90;999.90;;;;;;;5.89;66.18;101271.06;15790791;28;20044;-63
2021/01/14 12:17:40;;;;;;;1999.90;999.90;;;;;;;6.02;65.81;101273.19;15807810;28;20052;-63
2021/01/14 12:25:13;;;;;;;1999.90;999.90;;;;;;;5.77;67.32;101267.81;15789701;28;20405;-63
2021/01/14 12:32:46;;;;;;;1999.90;999.90;;;;;;;5.90;66.73;101271.88;15807781;28;20052;-62
2021/01/14 12:40:18;;;;;;;1999.90;999.90;;;;;;;5.78;67.49;101272.25;15807451;28;20079;-63
2021/01/14 12:47:50;;;;;;;1999.90;999.90;;;;;;;5.48;67.93;101278.81;15789460;28;20582;-62
2021/01/14 12:55:23;;;;;;;1999.90;999.90;;;;;;;5.44;66.97;101283.25;15787875;28;20417;-63
2021/01/14 13:02:54;;;;;;;1999.90;999.90;;;;;;;5.62;67.32;101287.28;15806906;28;20044;-63
2021/01/14 13:10:27;;;;;;;1999.90;999.90;;;;;;;5.29;67.24;101288.84;15805897;28;20439;-65
2021/01/14 13:17:58;;;;;;;1999.90;999.90;;;;;;;5.36;66.18;101300.47;15788350;28;20062;-64
2021/01/14 13:25:31;;;;;;;1999.90;999.90;;;;;;;5.34;67.20;101299.91;15787276;28;20417;-66
2021/01/14 13:33:03;;;;;;;1999.90;999.90;;;;;;;5.11;67.36;101307.75;15804985;28;20048;-66
2021/01/14 13:40:36;;;;;;;1999.90;999.90;;;;;;;5.04;67.50;101300.88;15786728;28;20044;-63
2021/01/14 13:48:08;;;;;;;1999.90;999.90;;;;;;;5.10;67.66;101308.84;15786632;28;20048;-63
2021/01/14 13:55:42;;;;;;;1999.90;999.90;;;;;;;5.22;67.45;101306.63;15804474;28;20051;-64
2021/01/14 14:03:15;;;;;;;1999.90;999.90;;;;;;;4.99;68.65;101323.00;15787352;28;20040;-63
2021/01/14 14:10:47;;;;;;;1999.90;999.90;;;;;;;5.17;67.99;101327.94;15815954;28;20040;-65
2021/01/14 14:18:19;;;;;;;1999.90;999.90;;;;;;;5.23;68.27;101337.88;15815487;28;20048;-65
2021/01/14 14:25:53;;;;;;;1999.90;999.90;;;;;;;5.14;67.92;101345.09;15815174;28;20052;-67
2021/01/14 14:33:25;;;;;;;1999.90;999.90;;;;;;;5.22;67.98;101344.53;15796073;28;20051;-66
2021/01/14 14:40:58;;;;;;;1999.90;999.90;;;;;;;5.00;68.64;101355.91;15814345;28;20488;-65
2021/01/14 14:48:29;;;;;;;1999.90;999.90;;;;;;;4.69;69.26;101366.22;15796464;28;20499;-65
2021/01/14 14:56:05;;;;;;;1999.90;999.90;;;;;;;5.07;67.89;101367.50;15796713;28;20500;-66
2021/01/14 15:03:37;;;;;;;1999.90;999.90;;;;;;;4.68;68.76;101378.34;15796379;28;20127;-66
2021/01/14 15:11:10;;;;;;;1999.90;999.90;;;;;;;5.05;68.56;101375.28;15795306;28;20056;-66
2021/01/14 15:18:43;;;;;;;1999.90;999.90;;;;;;;4.96;68.39;101384.41;15812337;28;20056;-66
2021/01/14 15:26:15;;;;;;;1999.90;999.90;;;;;;;4.89;68.96;101396.59;15812070;28;20051;-66
2021/01/14 15:33:47;;;;;;;1999.90;999.90;;;;;;;4.64;69.57;101405.72;15793065;28;20051;-65
2021/01/14 15:41:20;;;;;;;1999.90;999.90;;;;;;;4.71;70.18;101411.00;15810787;28;20044;-66
2021/01/14 15:48:51;;;;;;;1999.90;999.90;;;;;;;4.39;71.20;101413.19;15810111;28;20054;-66
2021/01/14 15:56:29;;;;;;;1999.90;999.90;;;;;;;4.76;69.94;101415.69;15810315;28;20055;-63
2021/01/14 16:04:00;;;;;;;1999.90;999.90;;;;;;;4.60;70.02;101426.75;15808909;28;20551;-66
2021/01/14 16:11:33;;;;;;;1999.90;999.90;;;;;;;4.62;70.33;101440.28;15809524;28;20047;-66
2021/01/14 16:19:05;;;;;;;1999.90;999.90;;;;;;;4.76;69.98;101444.16;15790302;28;20409;-64
2021/01/14 16:26:38;;;;;;;1999.90;999.90;;;;;;;4.98;69.45;101456.88;15789836;28;20481;-66
2021/01/14 16:34:09;;;;;;;1999.90;999.90;;;;;;;4.81;69.50;101459.94;15807665;28;20097;-65
2021/01/14 16:41:42;;;;;;;1999.90;999.90;;;;;;;4.89;70.02;101457.44;15792563;28;20469;-64
2021/01/14 16:49:14;;;;;;;1999.90;999.90;;;;;;;4.92;69.60;101465.19;15808628;28;20161;-64
2021/01/14 16:56:47;;;;;;;1999.90;999.90;;;;;;;4.81;69.89;101466.31;15788805;28;20450;-63
2021/01/14 17:04:18;;;;;;;1999.90;999.90;;;;;;;4.87;69.23;101467.94;15787977;28;20036;-63
2021/01/14 17:11:52;;;;;;;1999.90;999.90;;;;;;;5.03;69.86;101479.84;15785165;28;20055;-64
2021/01/14 17:19:24;;;;;;;1999.90;999.90;;;;;;;4.66;70.66;101473.75;15805800;28;20093;-65
2021/01/14 17:26:57;;;;;;;1999.90;999.90;;;;;;;4.53;71.07;101459.34;15805760;28;20059;-67
2021/01/14 17:34:28;;;;;;;1999.90;999.90;;;;;;;4.84;70.33;101479.56;15787066;28;20040;-67
2021/01/14 17:42:01;;;;;;;1999.90;999.90;;;;;;;4.79;70.25;101470.41;15796944;28;20408;-62
2021/01/14 17:49:36;;;;;;;1999.90;999.90;;;;;;;4.70;71.35;101472.94;15813880;28;20040;-63
2021/01/14 17:57:08;;;;;;;1999.90;999.90;;;;;;;4.87;70.19;101472.66;15780409;28;20049;-64
2021/01/14 18:04:40;;;;;;;1999.90;999.90;;;;;;;4.61;71.50;101483.69;15771830;28;20045;-64
2021/01/14 18:12:12;;;;;;;1999.90;999.90;;;;;;;4.60;72.01;101482.03;15812351;28;20059;-64
2021/01/14 18:19:44;;;;;;;1999.90;999.90;;;;;;;4.75;71.45;101492.28;15814754;28;20052;-65
2021/01/14 18:27:16;;;;;;;1999.90;999.90;;;;;;;4.95;70.50;101493.41;15779956;28;20481;-66
2021/01/14 18:34:48;;;;;;;1999.90;999.90;;;;;;;4.65;71.44;101500.56;15813732;28;20047;-65
2021/01/14 18:42:21;;;;;;;1999.90;999.90;;;;;;;4.60;71.78;101504.16;15813906;28;20127;-64
2021/01/14 18:49:52;;;;;;;1999.90;999.90;;;;;;;4.76;71.10;101518.00;15813679;28;20056;-66
2021/01/14 18:57:25;;;;;;;1999.90;999.90;;;;;;;4.72;70.75;101517.72;15813339;28;20055;-64
2021/01/14 19:04:57;;;;;;;1999.90;999.90;;;;;;;4.45;72.43;101519.88;15813719;28;20408;-65
2021/01/14 19:12:29;;;;;;;1999.90;999.90;;;;;;;4.72;71.39;101525.19;15749000;28;20060;-62
2021/01/14 19:20:02;;;;;;;1999.90;999.90;;;;;;;4.67;71.46;101522.41;15756303;28;20047;-62
2021/01/14 19:27:35;;;;;;;1999.90;999.90;;;;;;;4.57;71.82;101525.97;15816275;22;20500;-59
2021/01/14 19:35:09;;;;;;;1999.90;999.90;;;;;;;4.46;72.60;101532.56;15770894;28;20079;-58
2021/01/14 19:42:41;;;;;;;;;;;;;;;4.78;71.88;101533.19;15747431;28;20056;-61
2021/01/14 19:50:15;;;;;;;1999.90;999.90;;;;;;;4.46;71.96;101538.94;15724687;28;20330;-60
2021/01/14 19:57:49;;;;;;;1999.90;999.90;;;;;;;4.35;72.33;101531.72;15743424;28;20464;-58
2021/01/14 20:05:20;;;;;;;1999.90;999.90;;;;;;;4.40;72.25;101553.03;15744256;28;20044;-59
2021/01/14 20:12:53;;;;;;;1999.90;999.90;;;;;;;4.43;72.33;101545.00;15744678;28;20044;-60
2021/01/14 20:20:24;;;;;;;1999.90;999.90;;;;;;;4.24;72.59;101549.38;15744140;28;20491;-61
2021/01/14 20:27:57;;;;;;;1999.90;999.90;;;;;;;4.60;71.87;101553.91;15763337;28;20083;-59
2021/01/14 20:35:28;;;;;;;1999.90;999.90;;;;;;;4.52;72.30;101568.25;15722206;28;20051;-62
2021/01/14 20:43:01;;;;;;;1999.90;999.90;;;;;;;4.42;72.17;101562.72;15724010;28;20069;-66
2021/01/14 20:50:33;;;;;;;1999.90;999.90;;;;;;;4.21;73.58;101560.97;15703627;28;20043;-59
2021/01/14 20:58:05;;;;;;;1999.90;999.90;;;;;;;4.51;72.12;101566.59;15753643;28;20056;-60
2021/01/14 21:05:37;;;;;;;1999.90;999.90;;;;;;;4.70;71.36;101572.47;15744052;28;20049;-59
2021/01/14 21:13:09;;;;;;;1999.90;999.90;;;;;;;4.54;72.57;101573.53;15749836;28;20067;-63
2021/01/14 21:20:41;;;;;;;1999.90;999.90;;;;;;;4.45;72.89;101569.63;15801183;28;20079;-64
2021/01/14 21:28:15;;;;;;;1999.90;999.90;;;;;;;4.81;70.79;101573.31;15801192;28;20075;-61
2021/01/14 21:35:46;;;;;;;1999.90;999.90;;;;;;;4.44;72.60;101560.50;15765574;28;20456;-62
2021/01/14 21:43:20;;;;;;;1999.90;999.90;;;;;;;4.69;71.93;101564.41;15753971;28;20052;-58
2021/01/14 21:50:52;;;;;;;;;;;;;;;4.82;71.59;101577.75;15802067;28;20044;-60
2021/01/14 21:58:24;;;;;;;1999.90;999.90;;;;;;;4.68;71.99;101585.72;15723658;28;20375;-59
2021/01/14 22:05:56;;;;;;;1999.90;999.90;;;;;;;4.90;70.57;101580.81;15736505;28;20049;-62
2021/01/14 22:13:28;;;;;;;1999.90;999.90;;;;;;;5.12;70.48;101585.25;15710770;28;20064;-61
2021/01/14 22:21:01;;;;;;;1999.90;999.90;;;;;;;5.13;69.51;101590.50;15681160;28;20048;-59
2021/01/14 22:28:33;;;;;;;1999.90;999.90;;;;;;;4.89;71.14;101600.41;15738332;28;20493;-59
2021/01/14 22:36:10;;;;;;;1999.90;999.90;;;;;;;5.14;70.25;101597.69;15730596;28;20044;-59
2021/01/14 22:43:42;;;;;;;1999.90;999.90;;;;;;;4.92;70.88;101602.66;15729586;28;20049;-62
2021/01/14 22:51:23;;;;;;;1999.90;999.90;;;;;;;4.88;71.70;101599.59;15748118;28;20052;-61
2021/01/14 22:58:56;;;;;;;1999.90;999.90;;;;;;;4.91;70.04;101601.00;15747611;28;20052;-57
2021/01/14 23:06:34;;;;;;;1999.90;999.90;;;;;;;4.97;70.52;101602.66;15747064;28;20388;-59
2021/01/14 23:14:08;;;;;;;1999.90;999.90;;;;;;;5.00;71.00;101607.63;15746140;28;20076;-55
2021/01/14 23:21:41;;;;;;;1999.90;999.90;;;;;;;4.87;71.59;101609.00;15728580;28;20127;-57
2021/01/14 23:29:14;;;;;;;1999.90;999.90;;;;;;;5.05;70.65;101601.28;15744982;28;20474;-57
2021/01/14 23:36:45;;;;;;;1999.90;999.90;;;;;;;4.85;70.47;101593.78;15744676;28;20493;-56
2021/01/14 23:44:18;;;;;;;1999.90;999.90;;;;;;;4.54;72.39;101598.41;15726213;28;20085;-58
2021/01/14 23:51:50;;;;;;;1999.90;999.90;;;;;;;4.69;71.31;101598.47;15728061;28;20041;-57
2021/01/14 23:59:22;;;;;;;1999.90;999.90;;;;;;;4.59;72.50;101595.66;15745141;28;20489;-58
